Аэропорт: Гостомель. Киев

ICAO: UKKM

METAR:
2021-07-28 13:00:00
UKKM 281300Z 29004MPS 260V340 CAVOK 31/17 Q1013 R15/CLRD70 NOSIG
METAR:
2021-07-28 11:06:00
TAF COR UKKM 281106Z 2812/2912 27005G10MPS 9999 BKN030 TX32/2912Z TN19/2902Z TEMPO 2812/2818 VRB09G18MPS 1000 TSRAGR SQ SCT005 BKN020CB BECMG 2818/2820 23004MPS TEMPO 2820/2906 1000 BR BKN005 TEMPO 2908/2912 VRB09G18MPS 2100 -TSRAGR SQ SCT007 BKN020CB